Time;durP1;ratioP1;P1;durP2;ratioP2;P2;SDS_P1;SDS_P2;PMS_P1;PMS_P2;Temp;Humidity;BMP_temperature;BMP_pressure;BME280_temperature;BME280_humidity;BME280_pressure;Samples;Min_cycle;Max_cycle;Signal;HPM_P1;HPM_P2
2023/03/11 00:00:33;;;;;;;33.28;7.97;;;15.90;99.90;;;;;;5052732;28;20017;-66
2023/03/11 00:03:00;;;;;;;29.35;7.07;;;15.50;99.90;;;;;;5053428;28;20033;-66
2023/03/11 00:05:29;;;;;;;28.52;6.88;;;15.60;99.90;;;;;;5052991;28;20208;-67
2023/03/11 00:07:55;;;;;;;33.80;7.00;;;15.70;99.90;;;;;;5053071;28;20032;-67
2023/03/11 00:10:28;;;;;;;27.10;7.05;;;15.70;99.90;;;;;;5052863;28;20389;-67
2023/03/11 00:12:53;;;;;;;29.17;6.35;;;15.70;99.90;;;;;;5052865;28;20389;-66
2023/03/11 00:15:19;;;;;;;25.48;7.22;;;15.80;99.90;;;;;;5052660;28;20052;-67
2023/03/11 00:17:47;;;;;;;27.70;6.93;;;15.70;99.90;;;;;;5052521;28;20029;-67
2023/03/11 00:20:33;;;;;;;29.88;6.47;;;15.90;99.90;;;;;;5052680;28;20048;-67
2023/03/11 00:22:59;;;;;;;24.50;6.15;;;15.90;99.90;;;;;;5052925;28;20035;-67
2023/03/11 00:25:28;;;;;;;25.05;6.80;;;15.90;99.90;;;;;;5052648;28;20104;-67
2023/03/11 00:27:54;;;;;;;28.05;6.25;;;15.60;99.90;;;;;;5052334;28;20051;-67
2023/03/11 00:30:21;;;;;;;25.30;6.20;;;15.90;99.90;;;;;;5052404;28;20029;-67
2023/03/11 00:32:48;;;;;;;24.63;6.78;;;16.00;99.90;;;;;;5052738;28;20031;-67
2023/03/11 00:35:17;;;;;;;26.13;6.20;;;15.70;99.90;;;;;;5052497;28;20379;-67
2023/03/11 00:37:45;;;;;;;25.35;6.00;;;15.90;99.90;;;;;;5052319;28;20037;-66
2023/03/11 00:40:15;;;;;;;25.45;6.10;;;16.00;99.90;;;;;;5052326;28;20462;-67
2023/03/11 00:42:40;;;;;;;25.52;6.30;;;15.80;99.90;;;;;;5051482;28;20025;-66
2023/03/11 00:45:06;;;;;;;25.73;6.55;;;15.90;99.90;;;;;;5052060;28;20029;-66
2023/03/11 00:47:33;;;;;;;22.50;6.15;;;15.90;99.90;;;;;;5052307;28;20512;-67
2023/03/11 00:49:58;;;;;;;26.77;5.78;;;16.20;99.90;;;;;;5052576;28;20025;-66
2023/03/11 00:52:24;;;;;;;26.58;6.22;;;16.00;99.90;;;;;;5052202;28;20033;-67
2023/03/11 00:54:50;;;;;;;23.35;6.20;;;16.00;99.90;;;;;;5052204;28;20363;-67
2023/03/11 00:57:16;;;;;;;22.10;5.75;;;15.90;99.90;;;;;;5052130;28;20056;-67
2023/03/11 00:59:41;;;;;;;27.38;6.22;;;16.00;99.90;;;;;;5052060;28;20075;-67
2023/03/11 01:02:07;;;;;;;23.73;5.68;;;16.00;99.90;;;;;;5051969;28;20025;-66
2023/03/11 01:04:33;;;;;;;22.80;5.70;;;16.00;99.90;;;;;;5052210;28;20037;-66
2023/03/11 01:06:59;;;;;;;21.38;5.60;;;15.80;99.90;;;;;;5051989;28;20025;-67
2023/03/11 01:09:24;;;;;;;23.77;5.68;;;16.10;99.90;;;;;;5052318;28;20021;-67
2023/03/11 01:11:50;;;;;;;21.38;5.60;;;15.90;99.90;;;;;;5051609;28;20017;-67
2023/03/11 01:14:17;;;;;;;26.00;6.57;;;16.20;99.90;;;;;;5051687;28;20049;-68
2023/03/11 01:16:43;;;;;;;24.00;6.22;;;15.70;99.90;;;;;;5052180;28;20504;-67
2023/03/11 01:19:09;;;;;;;26.45;6.35;;;15.80;99.90;;;;;;5051943;28;20103;-67
2023/03/11 01:21:34;;;;;;;27.02;5.85;;;15.70;99.90;;;;;;5051904;28;20469;-66
2023/03/11 01:24:00;;;;;;;25.02;6.00;;;15.60;99.90;;;;;;5051818;28;20017;-66
2023/03/11 01:26:26;;;;;;;28.33;5.85;;;15.50;99.90;;;;;;5052040;28;20017;-66
2023/03/11 01:28:51;;;;;;;30.98;7.25;;;15.50;99.90;;;;;;5051745;28;20025;-66
2023/03/11 01:31:17;;;;;;;22.10;6.75;;;15.40;99.90;;;;;;5051832;28;20037;-66
2023/03/11 01:33:43;;;;;;;21.52;6.20;;;15.50;99.90;;;;;;5051906;28;20486;-66
2023/03/11 01:36:08;;;;;;;25.55;6.10;;;15.30;99.90;;;;;;5052010;28;20025;-67
2023/03/11 01:38:34;;;;;;;25.65;6.63;;;15.70;99.90;;;;;;5051979;28;20076;-66
2023/03/11 01:41:00;;;;;;;24.30;6.32;;;15.20;99.90;;;;;;5051294;28;20025;-66
2023/03/11 01:43:44;;;;;;;32.30;6.88;;;15.50;99.90;;;;;;5051404;28;20079;-66
2023/03/11 01:46:10;;;;;;;25.13;6.13;;;15.20;99.90;;;;;;5051575;28;20029;-67
2023/03/11 01:48:37;;;;;;;25.73;6.80;;;15.40;99.90;;;;;;5051932;28;20472;-67
2023/03/11 01:51:04;;;;;;;28.40;6.47;;;15.30;99.90;;;;;;5051722;28;20540;-66
2023/03/11 01:53:31;;;;;;;24.48;6.35;;;15.30;99.90;;;;;;5051610;28;20108;-67
2023/03/11 01:55:56;;;;;;;24.95;5.53;;;15.30;99.90;;;;;;5054245;28;20033;-67
2023/03/11 01:58:31;;;;;;;28.88;6.88;;;15.70;99.90;;;;;;5055285;28;20033;-67
2023/03/11 02:00:58;;;;;;;25.90;5.53;;;15.90;99.90;;;;;;5055307;28;20075;-66
2023/03/11 02:03:33;;;;;;;24.45;6.30;;;15.60;99.90;;;;;;5055731;28;20029;-67
2023/03/11 02:06:02;;;;;;;22.35;5.32;;;15.50;99.90;;;;;;5055306;28;20071;-67
2023/03/11 02:08:32;;;;;;;21.45;5.78;;;15.50;99.90;;;;;;5055213;28;20025;-67
2023/03/11 02:10:59;;;;;;;20.67;5.25;;;15.50;99.90;;;;;;5054701;28;20052;-67
2023/03/11 02:13:25;;;;;;;20.92;5.82;;;15.70;99.90;;;;;;5054662;28;20037;-67
2023/03/11 02:15:51;;;;;;;21.85;5.43;;;15.70;99.90;;;;;;5054200;28;20536;-67
2023/03/11 02:18:19;;;;;;;25.67;6.13;;;15.70;99.90;;;;;;5054843;28;20041;-67
2023/03/11 02:21:22;;;;;;;27.52;5.70;;;15.60;99.90;;;;;;5054984;28;20394;-67
2023/03/11 02:23:58;;;;;;;23.90;6.22;;;15.70;99.90;;;;;;5054755;28;20029;-67
2023/03/11 02:26:24;;;;;;;23.55;6.00;;;15.80;99.90;;;;;;5054688;28;20513;-67
2023/03/11 02:28:51;;;;;;;28.60;6.22;;;15.90;99.90;;;;;;5054838;28;20086;-68
2023/03/11 02:31:17;;;;;;;24.30;6.03;;;15.60;99.90;;;;;;5054987;28;20079;-67
2023/03/11 02:33:45;;;;;;;21.77;5.68;;;15.60;99.90;;;;;;5054839;28;20063;-67
2023/03/11 02:36:43;;;;;;;24.98;6.13;;;15.50;99.90;;;;;;5054664;28;20021;-67
2023/03/11 02:39:09;;;;;;;22.45;5.93;;;15.60;99.90;;;;;;5032182;28;20045;-67
2023/03/11 02:41:37;;;;;;;24.85;5.55;;;15.50;99.90;;;;;;5015684;28;20360;-67
2023/03/11 02:44:07;;;;;;;24.05;6.45;;;15.50;99.90;;;;;;5032279;28;20026;-67
2023/03/11 02:46:34;;;;;;;24.38;5.80;;;15.50;99.90;;;;;;5032958;28;20510;-67
2023/03/11 02:49:00;;;;;;;24.83;6.45;;;15.50;99.90;;;;;;5032247;28;20044;-67
2023/03/11 02:51:26;;;;;;;27.27;6.72;;;15.60;99.90;;;;;;5032327;28;20159;-68
2023/03/11 02:53:56;;;;;;;27.02;6.80;;;15.50;99.90;;;;;;5031583;28;20056;-68
2023/03/11 02:56:22;;;;;;;20.85;6.13;;;15.60;99.90;;;;;;5032173;28;20037;-67
2023/03/11 02:58:47;;;;;;;28.50;6.43;;;15.30;99.90;;;;;;5032626;28;20044;-67
2023/03/11 03:01:13;;;;;;;30.52;6.60;;;15.60;99.90;;;;;;5032136;28;20037;-67
2023/03/11 03:03:39;;;;;;;22.30;5.55;;;15.30;99.90;;;;;;5032108;28;20040;-67
2023/03/11 03:06:05;;;;;;;24.42;6.15;;;15.60;99.90;;;;;;5032073;28;20032;-67
2023/03/11 03:08:30;;;;;;;27.58;7.10;;;15.80;99.90;;;;;;5031664;28;20490;-67
2023/03/11 03:10:58;;;;;;;28.08;7.15;;;15.70;99.90;;;;;;5031777;28;20569;-67
2023/03/11 03:13:24;;;;;;;30.50;6.63;;;15.30;99.90;;;;;;5031598;28;20077;-66
2023/03/11 03:15:50;;;;;;;24.73;6.38;;;15.70;99.90;;;;;;5034405;28;20508;-67
2023/03/11 03:18:16;;;;;;;32.55;7.28;;;15.30;99.90;;;;;;5033714;28;20148;-67
2023/03/11 03:20:42;;;;;;;26.30;6.63;;;15.60;99.90;;;;;;5032980;28;20053;-67
2023/03/11 03:23:08;;;;;;;35.13;6.75;;;15.40;99.90;;;;;;5033623;28;20076;-67
2023/03/11 03:25:33;;;;;;;29.00;6.60;;;15.40;99.90;;;;;;5033883;28;20029;-67
2023/03/11 03:27:59;;;;;;;28.75;6.25;;;15.60;99.90;;;;;;5033963;28;20100;-68
2023/03/11 03:30:27;;;;;;;25.17;6.25;;;15.60;99.90;;;;;;5033806;28;20126;-67
2023/03/11 03:32:53;;;;;;;29.63;7.15;;;15.70;99.90;;;;;;5033571;28;20453;-67
2023/03/11 03:35:19;;;;;;;26.95;6.90;;;15.40;99.90;;;;;;5033584;28;20022;-67
2023/03/11 03:37:44;;;;;;;27.05;6.45;;;15.40;99.90;;;;;;5033469;28;20425;-68
2023/03/11 03:40:12;;;;;;;29.90;7.53;;;15.30;99.90;;;;;;5033723;28;20018;-67
2023/03/11 03:42:38;;;;;;;31.65;6.68;;;15.40;99.90;;;;;;5033450;28;20432;-67
2023/03/11 03:45:07;;;;;;;35.58;7.65;;;15.40;99.90;;;;;;5042188;28;20061;-67
2023/03/11 03:47:33;;;;;;;30.60;7.15;;;15.40;99.90;;;;;;5053354;28;20112;-67
2023/03/11 03:50:01;;;;;;;26.45;7.28;;;15.10;99.90;;;;;;5053081;28;20021;-67
2023/03/11 03:52:26;;;;;;;28.63;6.95;;;15.10;99.90;;;;;;5053344;28;20021;-67
2023/03/11 03:54:52;;;;;;;26.25;6.47;;;15.60;99.90;;;;;;5053073;28;20385;-67
2023/03/11 03:57:18;;;;;;;31.58;6.90;;;15.20;99.90;;;;;;5053063;28;20033;-67
2023/03/11 03:59:43;;;;;;;36.13;7.82;;;15.10;99.90;;;;;;5053210;28;20024;-67
2023/03/11 04:02:09;;;;;;;26.00;6.53;;;15.30;99.90;;;;;;5052096;28;20394;-67
2023/03/11 04:04:35;;;;;;;31.00;7.07;;;15.20;99.90;;;;;;5053087;28;20070;-67
2023/03/11 04:07:03;;;;;;;31.08;6.68;;;15.40;99.90;;;;;;5052521;28;20025;-67
2023/03/11 04:09:29;;;;;;;30.77;6.70;;;15.00;99.90;;;;;;5053151;28;20371;-67
2023/03/11 04:11:55;;;;;;;31.52;7.40;;;15.10;99.90;;;;;;5052926;28;20028;-67
2023/03/11 04:14:20;;;;;;;27.00;6.70;;;15.40;99.90;;;;;;5052625;28;20052;-67
2023/03/11 04:16:46;;;;;;;30.48;6.55;;;15.00;99.90;;;;;;5052339;28;20029;-67
2023/03/11 04:19:12;;;;;;;30.35;7.40;;;15.10;99.90;;;;;;5052523;28;20107;-66
2023/03/11 04:21:38;;;;;;;29.30;6.57;;;15.00;99.90;;;;;;5052673;28;20516;-67
2023/03/11 04:24:03;;;;;;;24.98;6.82;;;14.90;99.90;;;;;;5052753;28;20025;-66
2023/03/11 04:26:29;;;;;;;28.27;6.78;;;14.90;99.90;;;;;;5052638;28;20056;-67
2023/03/11 04:28:55;;;;;;;25.60;5.97;;;15.10;99.90;;;;;;5052407;28;20024;-67
2023/03/11 04:31:21;;;;;;;28.05;6.72;;;15.00;99.90;;;;;;5052412;28;20485;-66
2023/03/11 04:33:46;;;;;;;30.02;6.53;;;15.50;99.90;;;;;;5052960;28;20526;-67
2023/03/11 04:36:12;;;;;;;27.00;6.47;;;15.50;99.90;;;;;;5052092;28;20029;-67
2023/03/11 04:38:38;;;;;;;28.73;7.43;;;15.20;99.90;;;;;;5052200;28;20037;-67
2023/03/11 04:41:05;;;;;;;26.35;7.13;;;15.50;99.90;;;;;;5051209;28;20397;-67
2023/03/11 04:43:32;;;;;;;29.70;6.95;;;15.00;99.90;;;;;;5052274;28;20024;-67
2023/03/11 04:45:57;;;;;;;28.92;6.28;;;15.40;99.90;;;;;;5052217;28;20123;-67
2023/03/11 04:48:25;;;;;;;28.67;6.78;;;15.00;99.90;;;;;;5052197;28;20470;-67
2023/03/11 04:50:52;;;;;;;27.98;6.65;;;15.20;99.90;;;;;;5051892;28;20044;-67
2023/03/11 04:53:17;;;;;;;28.23;6.95;;;15.20;99.90;;;;;;5052076;28;20033;-67
2023/03/11 04:55:43;;;;;;;28.10;6.88;;;15.10;99.90;;;;;;5052196;28;20048;-67
2023/03/11 04:58:09;;;;;;;25.63;6.50;;;15.20;99.90;;;;;;5052019;28;20404;-67
2023/03/11 05:00:35;;;;;;;26.00;6.65;;;15.30;99.90;;;;;;5051026;28;20025;-67
2023/03/11 05:03:01;;;;;;;26.15;6.78;;;15.10;99.90;;;;;;5052456;28;20092;-67
2023/03/11 05:05:26;;;;;;;27.83;6.95;;;15.40;99.90;;;;;;5051607;28;20386;-67
2023/03/11 05:07:52;;;;;;;29.58;6.95;;;15.10;99.90;;;;;;5051999;28;20055;-67
2023/03/11 05:10:23;;;;;;;27.10;6.57;;;15.10;99.90;;;;;;5052388;28;20051;-67
2023/03/11 05:12:50;;;;;;;30.80;6.38;;;15.20;99.90;;;;;;5051893;28;20487;-67
2023/03/11 05:15:16;;;;;;;28.48;6.57;;;15.10;99.90;;;;;;5051764;28;20099;-67
2023/03/11 05:17:42;;;;;;;32.92;7.68;;;15.10;99.90;;;;;;5051408;28;20037;-67
2023/03/11 05:20:08;;;;;;;32.95;6.95;;;15.20;99.90;;;;;;5051799;28;20025;-67
2023/03/11 05:22:34;;;;;;;27.38;7.00;;;15.10;99.90;;;;;;5051965;28;20025;-67
2023/03/11 05:25:00;;;;;;;26.90;6.85;;;15.00;99.90;;;;;;5052187;28;20404;-66
2023/03/11 05:27:25;;;;;;;31.35;7.72;;;15.10;99.90;;;;;;5051858;28;20025;-66
2023/03/11 05:29:51;;;;;;;31.27;7.38;;;15.00;99.90;;;;;;5054911;28;20098;-66
2023/03/11 05:32:18;;;;;;;34.08;8.15;;;14.80;99.90;;;;;;5055465;28;20037;-66
2023/03/11 05:34:44;;;;;;;38.17;8.88;;;15.10;99.90;;;;;;5056190;28;20444;-66
2023/03/11 05:37:10;;;;;;;35.90;8.27;;;14.90;99.90;;;;;;5055798;28;20033;-66
2023/03/11 05:39:36;;;;;;;34.97;8.10;;;14.70;99.90;;;;;;5055858;28;20025;-66
2023/03/11 05:42:03;;;;;;;31.67;8.13;;;14.80;99.90;;;;;;5055579;28;20040;-66
2023/03/11 05:44:33;;;;;;;37.10;8.55;;;14.70;99.90;;;;;;5055440;28;20029;-66
2023/03/11 05:46:59;;;;;;;33.00;8.48;;;15.00;99.90;;;;;;5055317;28;20074;-67
2023/03/11 05:49:24;;;;;;;30.38;7.88;;;14.90;99.90;;;;;;5055287;28;20482;-66
2023/03/11 05:51:53;;;;;;;28.58;7.30;;;15.00;99.90;;;;;;5055525;28;20078;-67
2023/03/11 05:54:18;;;;;;;33.42;8.13;;;15.20;99.90;;;;;;5055851;28;20118;-66
2023/03/11 05:56:45;;;;;;;34.10;8.45;;;15.00;99.90;;;;;;5055432;28;20498;-66
2023/03/11 05:59:13;;;;;;;36.00;8.27;;;14.70;99.90;;;;;;5055572;28;20086;-66
2023/03/11 06:01:40;;;;;;;33.65;8.02;;;14.80;99.90;;;;;;5055097;28;20020;-66
2023/03/11 06:04:06;;;;;;;35.35;8.10;;;14.70;99.90;;;;;;5055232;28;20100;-67
2023/03/11 06:06:32;;;;;;;32.45;8.05;;;14.50;99.90;;;;;;5055417;28;20555;-66
2023/03/11 06:08:58;;;;;;;32.17;8.75;;;14.60;99.90;;;;;;5055185;28;20103;-66
2023/03/11 06:11:24;;;;;;;36.20;9.05;;;14.80;99.90;;;;;;5055214;28;20056;-66
2023/03/11 06:13:54;;;;;;;36.75;8.73;;;14.30;99.90;;;;;;5054976;28;20539;-65
2023/03/11 06:16:21;;;;;;;31.88;8.23;;;14.40;99.90;;;;;;5055114;28;20036;-66
2023/03/11 06:18:47;;;;;;;30.67;8.20;;;14.30;99.90;;;;;;5055001;28;20513;-66
2023/03/11 06:21:18;;;;;;;34.00;8.73;;;14.20;99.90;;;;;;5054972;28;20017;-66
2023/03/11 06:23:44;;;;;;;33.90;8.32;;;14.50;99.90;;;;;;5055017;28;20021;-66
2023/03/11 06:26:13;;;;;;;34.53;7.88;;;14.30;99.90;;;;;;5054844;28;20127;-65
2023/03/11 06:28:38;;;;;;;33.03;8.98;;;14.40;99.90;;;;;;5055129;28;20028;-66
2023/03/11 06:31:15;;;;;;;33.25;8.20;;;14.40;99.90;;;;;;5054730;28;20029;-66
2023/03/11 06:33:42;;;;;;;26.55;7.38;;;14.20;99.90;;;;;;5054687;28;20032;-66
2023/03/11 06:36:09;;;;;;;28.73;7.25;;;14.10;99.90;;;;;;5054679;28;20041;-65
2023/03/11 06:38:34;;;;;;;24.48;7.10;;;14.10;99.90;;;;;;5055107;28;20036;-66
2023/03/11 06:41:02;;;;;;;18.58;6.00;;;14.40;99.90;;;;;;5053582;28;20029;-63
2023/03/11 06:43:30;;;;;;;18.73;5.88;;;14.10;99.90;;;;;;5054552;28;20025;-65
2023/03/11 06:45:56;;;;;;;20.58;6.28;;;14.10;99.90;;;;;;5054486;28;20040;-65
2023/03/11 06:48:22;;;;;;;14.30;5.32;;;14.40;99.90;;;;;;5053063;28;20150;-66
2023/03/11 06:50:58;;;;;;;13.25;4.90;;;14.10;99.90;;;;;;5053843;28;20470;-65
2023/03/11 06:53:25;;;;;;;13.27;4.38;;;14.30;99.90;;;;;;5053863;28;20418;-66
2023/03/11 06:55:58;;;;;;;12.82;4.68;;;14.20;99.90;;;;;;5054350;28;20036;-66
2023/03/11 06:58:24;;;;;;;;;;;14.20;99.90;;;;;;5055082;28;20032;-66
2023/03/11 07:00:50;;;;;;;12.63;4.10;;;14.10;99.90;;;;;;5053850;28;19911;-65
2023/03/11 07:03:15;;;;;;;10.77;3.63;;;14.00;99.90;;;;;;5052945;28;20163;-65
2023/03/11 07:05:41;;;;;;;11.77;3.58;;;14.00;99.90;;;;;;5054109;28;20024;-65
2023/03/11 07:08:07;;;;;;;10.93;3.30;;;14.10;99.90;;;;;;5054592;28;20060;-67
2023/03/11 07:10:33;;;;;;;13.07;3.72;;;14.40;99.90;;;;;;5054671;28;20551;-66
2023/03/11 07:12:58;;;;;;;10.10;3.40;;;14.00;99.90;;;;;;5053949;28;20033;-67
2023/03/11 07:15:24;;;;;;;9.23;3.55;;;14.20;99.90;;;;;;5053235;28;20033;-66
2023/03/11 07:17:50;;;;;;;10.43;3.42;;;14.10;99.90;;;;;;5054182;28;20037;-66
2023/03/11 07:20:16;;;;;;;11.00;3.70;;;14.20;99.90;;;;;;5053767;28;20025;-65
2023/03/11 07:22:42;;;;;;;13.73;3.97;;;14.10;99.90;;;;;;5053761;28;20029;-66
2023/03/11 07:25:07;;;;;;;13.18;3.60;;;14.10;99.90;;;;;;5053939;28;20036;-65
2023/03/11 07:27:33;;;;;;;10.30;3.92;;;14.40;99.90;;;;;;5054348;28;20496;-66
2023/03/11 07:30:01;;;;;;;12.32;4.10;;;14.10;99.90;;;;;;5053429;28;20528;-66
2023/03/11 07:32:27;;;;;;;11.10;4.40;;;14.20;99.90;;;;;;5054154;28;20025;-66
2023/03/11 07:34:52;;;;;;;13.88;4.38;;;14.50;99.90;;;;;;5053776;28;20048;-65
2023/03/11 07:37:18;;;;;;;18.27;4.65;;;14.10;99.90;;;;;;5053672;28;20108;-66
2023/03/11 07:39:44;;;;;;;18.48;5.03;;;14.20;99.90;;;;;;5053567;28;20512;-66
2023/03/11 07:42:09;;;;;;;16.15;4.32;;;13.90;99.90;;;;;;5053627;28;20029;-66
2023/03/11 07:44:35;;;;;;;13.13;4.78;;;14.40;99.90;;;;;;5053085;28;20036;-66
2023/03/11 07:47:02;;;;;;;18.10;5.32;;;14.20;99.90;;;;;;5053200;28;20054;-66
2023/03/11 07:49:28;;;;;;;16.05;4.72;;;14.10;99.90;;;;;;5051940;28;20385;-66
2023/03/11 07:51:55;;;;;;;17.70;5.57;;;14.20;99.90;;;;;;5052405;28;20096;-65
2023/03/11 07:54:21;;;;;;;15.30;4.60;;;14.30;99.90;;;;;;5053026;28;20024;-66
2023/03/11 07:56:46;;;;;;;13.25;4.43;;;14.20;99.90;;;;;;5051757;28;20132;-67
2023/03/11 07:59:12;;;;;;;13.75;4.65;;;14.00;99.90;;;;;;5052815;28;20131;-65
2023/03/11 08:01:40;;;;;;;12.88;4.00;;;14.50;99.90;;;;;;5053339;28;20021;-66
2023/03/11 08:04:08;;;;;;;10.30;3.42;;;14.30;99.90;;;;;;5052741;28;20052;-66
2023/03/11 08:06:35;;;;;;;7.85;3.00;;;14.30;99.90;;;;;;5052972;28;20051;-66
2023/03/11 08:09:04;;;;;;;11.38;3.35;;;14.10;99.90;;;;;;5051780;28;20034;-65
2023/03/11 08:11:30;;;;;;;8.93;2.92;;;14.30;99.90;;;;;;5051480;28;20048;-67
2023/03/11 08:14:03;;;;;;;8.85;3.42;;;14.30;99.90;;;;;;5068036;28;20811;-67
2023/03/11 08:16:30;;;;;;;8.48;3.00;;;14.10;99.90;;;;;;5069498;28;20064;-66
2023/03/11 08:18:56;;;;;;;9.50;3.25;;;14.20;99.90;;;;;;5069433;28;20078;-67
2023/03/11 08:21:25;;;;;;;7.93;3.13;;;14.30;99.90;;;;;;5069758;28;20020;-67
2023/03/11 08:23:55;;;;;;;8.15;3.13;;;14.30;99.90;;;;;;5069571;28;20017;-66
2023/03/11 08:26:21;;;;;;;8.75;2.85;;;14.70;99.90;;;;;;5068798;28;20025;-67
2023/03/11 08:28:47;;;;;;;8.57;2.78;;;14.70;99.90;;;;;;5069102;28;20043;-67
2023/03/11 08:31:22;;;;;;;9.80;3.00;;;14.40;99.90;;;;;;5069210;28;20036;-67
2023/03/11 08:33:49;;;;;;;15.32;5.82;;;14.40;99.90;;;;;;5069776;28;20029;-67
2023/03/11 08:36:15;;;;;;;11.70;2.90;;;14.50;99.90;;;;;;5069269;28;20052;-67
2023/03/11 08:38:41;;;;;;;7.80;3.47;;;14.50;99.90;;;;;;5069030;28;20111;-66
2023/03/11 08:41:07;;;;;;;9.82;2.95;;;14.40;99.90;;;;;;5068551;28;20105;-66
2023/03/11 08:43:33;;;;;;;8.80;2.80;;;14.40;99.90;;;;;;5068853;28;20049;-66
2023/03/11 08:46:01;;;;;;;7.90;2.95;;;14.30;99.90;;;;;;5068352;28;20029;-66
2023/03/11 08:48:27;;;;;;;7.47;2.42;;;14.40;99.90;;;;;;5069186;28;20090;-66
2023/03/11 08:50:53;;;;;;;8.93;2.50;;;14.30;99.90;;;;;;5068771;28;20047;-66
2023/03/11 08:53:19;;;;;;;6.72;3.00;;;14.50;99.90;;;;;;5068768;28;20763;-66
2023/03/11 08:55:44;;;;;;;10.30;3.90;;;14.40;99.90;;;;;;5068499;28;20024;-67
2023/03/11 08:58:11;;;;;;;13.27;5.70;;;14.50;99.90;;;;;;5068907;28;20040;-68
2023/03/11 09:00:36;;;;;;;11.10;4.10;;;14.30;99.90;;;;;;5068617;28;20013;-65
2023/03/11 09:03:02;;;;;;;10.52;3.35;;;14.60;99.90;;;;;;5068642;28;20119;-67
2023/03/11 09:05:28;;;;;;;13.02;4.60;;;14.50;99.90;;;;;;5068548;28;20037;-65
2023/03/11 09:07:53;;;;;;;10.30;3.35;;;14.60;99.90;;;;;;5068534;28;20022;-66
2023/03/11 09:10:19;;;;;;;14.57;4.68;;;14.90;99.90;;;;;;5068062;28;20104;-66
2023/03/11 09:12:45;;;;;;;15.98;5.32;;;14.80;99.90;;;;;;5068189;28;20514;-64
2023/03/11 09:15:11;;;;;;;12.35;5.72;;;14.60;99.90;;;;;;5068424;28;20052;-64
2023/03/11 09:17:36;;;;;;;29.75;15.10;;;14.20;99.90;;;;;;5068232;28;20438;-64
2023/03/11 09:20:03;;;;;;;17.23;5.43;;;14.30;99.90;;;;;;5068131;28;20028;-63
2023/03/11 09:22:29;;;;;;;30.02;16.70;;;14.80;99.90;;;;;;5068239;28;20029;-63
2023/03/11 09:24:55;;;;;;;14.95;5.47;;;14.50;99.90;;;;;;5057800;28;20025;-65
2023/03/11 09:27:21;;;;;;;15.15;4.10;;;14.30;99.90;;;;;;5054763;28;20061;-63
2023/03/11 09:29:47;;;;;;;16.73;4.13;;;14.40;99.90;;;;;;5054858;28;20057;-66
2023/03/11 09:32:14;;;;;;;13.13;4.43;;;14.80;99.90;;;;;;5054836;28;20375;-65
2023/03/11 09:34:39;;;;;;;15.95;5.43;;;14.40;99.90;;;;;;5054467;28;20447;-65
2023/03/11 09:37:05;;;;;;;11.13;3.92;;;14.80;99.90;;;;;;5054399;28;20052;-64
2023/03/11 09:39:31;;;;;;;7.95;2.92;;;14.60;99.90;;;;;;5053972;28;20021;-65
2023/03/11 09:42:02;;;;;;;8.07;3.78;;;14.40;99.90;;;;;;5054031;28;20017;-65
2023/03/11 09:44:44;;;;;;;10.80;3.70;;;14.30;99.90;;;;;;5053929;28;20025;-65
2023/03/11 09:47:16;;;;;;;9.65;6.25;;;14.50;99.90;;;;;;5054396;28;20086;-65
2023/03/11 09:50:07;;;;;;;5.70;2.65;;;14.60;99.90;;;;;;5054376;28;20104;-66
2023/03/11 09:52:40;;;;;;;3.13;2.00;;;14.40;99.90;;;;;;5054319;28;20359;-65
2023/03/11 09:55:31;;;;;;;4.82;1.83;;;14.30;99.90;;;;;;5053772;28;20036;-65
2023/03/11 09:58:00;;;;;;;4.68;1.60;;;14.50;99.90;;;;;;5054111;28;20048;-65
2023/03/11 10:00:26;;;;;;;5.43;4.35;;;14.40;99.90;;;;;;5054242;28;20420;-64
2023/03/11 10:02:52;;;;;;;9.02;6.70;;;14.40;99.90;;;;;;5053725;28;20493;-65
2023/03/11 10:05:24;;;;;;;9.40;6.72;;;14.10;99.90;;;;;;5054014;28;20024;-65
2023/03/11 10:08:03;;;;;;;9.95;5.90;;;14.50;99.90;;;;;;5053762;28;20040;-65
2023/03/11 10:10:35;;;;;;;6.00;2.50;;;14.60;99.90;;;;;;5053779;28;20082;-65
2023/03/11 10:13:01;;;;;;;6.22;2.22;;;14.50;99.90;;;;;;5054088;28;20080;-65
2023/03/11 10:15:39;;;;;;;5.22;2.03;;;14.50;99.90;;;;;;5053829;28;20075;-65
2023/03/11 10:18:28;;;;;;;9.05;2.10;;;14.30;99.90;;;;;;5053864;28;20393;-65
2023/03/11 10:21:00;;;;;;;6.15;2.00;;;14.30;99.90;;;;;;5053197;28;20046;-65
2023/03/11 10:24:06;;;;;;;5.65;2.17;;;14.20;99.90;;;;;;5053730;28;20486;-65
2023/03/11 10:26:35;;;;;;;7.43;4.43;;;14.20;99.90;;;;;;5011746;28;20038;-66
2023/03/11 10:29:18;;;;;;;8.48;3.33;;;14.30;99.90;;;;;;5011649;28;20525;-65
2023/03/11 10:31:50;;;;;;;7.97;3.13;;;14.50;99.90;;;;;;5011711;28;20586;-65
2023/03/11 10:34:31;;;;;;;8.13;2.53;;;14.50;99.90;;;;;;5011999;28;20293;-65
2023/03/11 10:37:18;;;;;;;9.27;2.80;;;14.60;99.90;;;;;;5010179;28;20161;-65
2023/03/11 10:39:47;;;;;;;8.48;2.67;;;14.20;99.90;;;;;;5011878;28;20026;-65
2023/03/11 10:42:17;;;;;;;8.60;2.40;;;14.50;99.90;;;;;;5011386;28;20041;-66
2023/03/11 10:44:43;;;;;;;7.82;2.40;;;14.40;99.90;;;;;;5011360;28;20026;-65
2023/03/11 10:47:19;;;;;;;6.63;2.53;;;14.80;99.90;;;;;;5011150;28;20030;-65
2023/03/11 10:49:45;;;;;;;10.30;3.00;;;14.50;99.90;;;;;;5011793;28;20561;-65
2023/03/11 10:52:11;;;;;;;8.55;2.83;;;14.50;99.90;;;;;;5010326;28;20030;-66
2023/03/11 10:54:44;;;;;;;10.65;2.63;;;14.70;99.90;;;;;;5011599;28;20025;-65
2023/03/11 10:57:31;;;;;;;13.02;6.22;;;14.60;99.90;;;;;;5011231;28;20053;-65
2023/03/11 10:59:59;;;;;;;11.02;2.60;;;14.80;99.90;;;;;;5011284;28;20333;-65
2023/03/11 11:02:30;;;;;;;9.38;2.67;;;14.30;99.90;;;;;;5024805;28;20482;-65
2023/03/11 11:05:31;;;;;;;8.57;2.60;;;14.70;99.90;;;;;;5032936;28;20091;-65
2023/03/11 11:08:15;;;;;;;7.53;2.55;;;14.50;99.90;;;;;;5010723;28;20077;-66
2023/03/11 11:10:56;;;;;;;7.32;2.70;;;14.80;99.90;;;;;;5011313;28;20476;-66
2023/03/11 11:13:24;;;;;;;11.48;2.80;;;14.70;99.90;;;;;;5010897;28;20085;-66
2023/03/11 11:15:52;;;;;;;10.35;2.58;;;14.80;99.90;;;;;;5010994;28;20064;-66
2023/03/11 11:18:26;;;;;;;6.55;2.53;;;14.70;99.90;;;;;;5011040;28;20091;-65
2023/03/11 11:21:07;;;;;;;9.55;2.80;;;14.70;99.90;;;;;;5010471;28;20030;-65
2023/03/11 11:23:45;;;;;;;9.13;2.78;;;14.80;99.90;;;;;;5010689;28;20033;-66
2023/03/11 11:26:24;;;;;;;18.67;12.55;;;14.50;99.90;;;;;;5010764;28;20034;-65
2023/03/11 11:29:19;;;;;;;9.18;3.00;;;14.70;99.90;;;;;;5011093;28;20025;-65
2023/03/11 11:31:45;;;;;;;8.40;2.72;;;15.00;99.90;;;;;;4993858;28;20042;-66
2023/03/11 11:34:31;;;;;;;12.43;4.00;;;15.00;99.90;;;;;;5010377;28;20513;-66
2023/03/11 11:37:00;;;;;;;10.35;3.22;;;14.50;99.90;;;;;;5010527;28;20030;-64
2023/03/11 11:39:31;;;;;;;11.70;3.35;;;14.70;99.90;;;;;;5010529;28;20562;-65
2023/03/11 11:41:57;;;;;;;9.50;3.25;;;14.80;99.90;;;;;;5010536;28;20076;-66
2023/03/11 11:44:33;;;;;;;12.05;3.40;;;14.80;99.90;;;;;;5019664;28;20037;-65
2023/03/11 11:47:11;;;;;;;9.35;3.30;;;14.80;99.90;;;;;;5036649;28;20059;-66
2023/03/11 11:49:49;;;;;;;11.60;3.22;;;14.70;99.90;;;;;;5051844;28;20496;-65
2023/03/11 11:52:24;;;;;;;13.02;4.30;;;14.80;99.90;;;;;;5052598;28;20036;-66
2023/03/11 11:54:56;;;;;;;13.30;4.22;;;14.80;99.90;;;;;;5052532;28;20028;-65
2023/03/11 11:57:23;;;;;;;11.02;3.47;;;14.90;99.90;;;;;;5052510;28;20099;-66
2023/03/11 11:59:48;;;;;;;9.07;3.05;;;14.50;99.90;;;;;;5052337;28;20021;-65
2023/03/11 12:02:42;;;;;;;10.90;3.20;;;14.80;99.90;;;;;;5052339;28;20031;-65
2023/03/11 12:05:27;;;;;;;9.30;3.25;;;14.60;99.90;;;;;;5052228;28;20029;-65
2023/03/11 12:08:05;;;;;;;11.38;3.17;;;14.50;99.90;;;;;;5052119;28;20398;-65
2023/03/11 12:10:43;;;;;;;10.65;3.63;;;14.70;99.90;;;;;;5051741;28;20489;-65
2023/03/11 12:13:41;;;;;;;9.38;3.70;;;14.90;99.90;;;;;;5051773;28;20494;-65
2023/03/11 12:16:18;;;;;;;7.93;3.55;;;14.90;99.90;;;;;;5051874;28;20075;-65
2023/03/11 12:18:56;;;;;;;9.27;2.88;;;15.10;99.90;;;;;;5051613;28;20131;-65
2023/03/11 12:21:30;;;;;;;8.45;3.08;;;15.20;99.90;;;;;;5052042;28;20032;-66
2023/03/11 12:24:22;;;;;;;8.48;2.80;;;15.10;99.90;;;;;;5051988;28;20029;-65
2023/03/11 12:26:51;;;;;;;8.27;2.42;;;14.90;99.90;;;;;;5051639;28;20036;-65
2023/03/11 12:29:32;;;;;;;12.23;3.40;;;14.80;99.90;;;;;;5052257;28;20017;-65
2023/03/11 12:32:00;;;;;;;12.73;3.30;;;14.80;99.90;;;;;;5051931;28;20375;-65
2023/03/11 12:34:28;;;;;;;10.57;3.72;;;14.90;99.90;;;;;;5051302;28;20104;-65
2023/03/11 12:37:02;;;;;;;11.32;3.25;;;15.10;99.90;;;;;;5051526;28;20113;-66
2023/03/11 12:39:33;;;;;;;13.73;3.70;;;15.10;99.90;;;;;;5051654;28;20052;-65
2023/03/11 12:42:10;;;;;;;15.68;4.28;;;15.40;99.90;;;;;;5051557;28;20106;-65
2023/03/11 12:44:38;;;;;;;12.07;4.78;;;15.10;99.90;;;;;;5052012;28;20393;-65
2023/03/11 12:47:18;;;;;;;18.52;4.40;;;15.30;99.90;;;;;;5051585;28;20044;-66